sensor_id;sensor_type;location;lat;lon;timestamp;temperature;humidity
4727;DHT22;2377;51.734;8.950;2022-12-04T00:01:20;0.20;1.00
4727;DHT22;2377;51.734;8.950;2022-12-04T00:03:51;0.20;1.00
4727;DHT22;2377;51.734;8.950;2022-12-04T00:06:20;0.20;1.00
4727;DHT22;2377;51.734;8.950;2022-12-04T00:08:49;0.20;1.00
4727;DHT22;2377;51.734;8.950;2022-12-04T00:11:19;0.20;1.00
4727;DHT22;2377;51.734;8.950;2022-12-04T00:13:48;0.20;1.00
4727;DHT22;2377;51.734;8.950;2022-12-04T00:16:19;0.20;1.00
4727;DHT22;2377;51.734;8.950;2022-12-04T00:18:48;0.20;1.00
4727;DHT22;2377;51.734;8.950;2022-12-04T00:21:16;0.30;1.00
4727;DHT22;2377;51.734;8.950;2022-12-04T00:23:44;0.30;1.00
4727;DHT22;2377;51.734;8.950;2022-12-04T00:26:14;0.30;1.00
4727;DHT22;2377;51.734;8.950;2022-12-04T00:28:42;0.30;1.00
4727;DHT22;2377;51.734;8.950;2022-12-04T00:31:13;0.30;1.00
4727;DHT22;2377;51.734;8.950;2022-12-04T00:33:43;0.30;1.00
4727;DHT22;2377;51.734;8.950;2022-12-04T00:36:11;0.30;1.00
4727;DHT22;2377;51.734;8.950;2022-12-04T00:38:40;0.30;1.00
4727;DHT22;2377;51.734;8.950;2022-12-04T00:41:09;0.30;1.00
4727;DHT22;2377;51.734;8.950;2022-12-04T00:43:37;0.30;1.00
4727;DHT22;2377;51.734;8.950;2022-12-04T00:46:05;0.30;1.00
4727;DHT22;2377;51.734;8.950;2022-12-04T00:48:32;0.30;1.00
4727;DHT22;2377;51.734;8.950;2022-12-04T00:51:02;0.30;1.00
4727;DHT22;2377;51.734;8.950;2022-12-04T00:53:30;0.30;1.00
4727;DHT22;2377;51.734;8.950;2022-12-04T00:55:57;0.30;1.00
4727;DHT22;2377;51.734;8.950;2022-12-04T00:58:25;0.30;1.00
4727;DHT22;2377;51.734;8.950;2022-12-04T01:01:00;0.30;1.00
4727;DHT22;2377;51.734;8.950;2022-12-04T01:03:29;0.20;1.00
4727;DHT22;2377;51.734;8.950;2022-12-04T01:05:56;0.20;1.00
4727;DHT22;2377;51.734;8.950;2022-12-04T01:08:25;0.20;1.00
4727;DHT22;2377;51.734;8.950;2022-12-04T01:10:52;0.20;1.00
4727;DHT22;2377;51.734;8.950;2022-12-04T01:13:20;0.20;1.00
4727;DHT22;2377;51.734;8.950;2022-12-04T01:15:48;0.20;1.00
4727;DHT22;2377;51.734;8.950;2022-12-04T01:18:16;0.20;1.00
4727;DHT22;2377;51.734;8.950;2022-12-04T01:20:47;0.20;1.00
4727;DHT22;2377;51.734;8.950;2022-12-04T01:23:15;0.20;1.00
4727;DHT22;2377;51.734;8.950;2022-12-04T01:25:51;0.30;1.00
4727;DHT22;2377;51.734;8.950;2022-12-04T01:28:19;0.20;1.00
4727;DHT22;2377;51.734;8.950;2022-12-04T01:30:59;0.20;1.00
4727;DHT22;2377;51.734;8.950;2022-12-04T01:33:29;0.20;1.00
4727;DHT22;2377;51.734;8.950;2022-12-04T01:35:58;0.20;1.00
4727;DHT22;2377;51.734;8.950;2022-12-04T01:38:27;0.30;1.00
4727;DHT22;2377;51.734;8.950;2022-12-04T01:40:57;0.30;1.00
4727;DHT22;2377;51.734;8.950;2022-12-04T01:43:25;0.20;1.00
4727;DHT22;2377;51.734;8.950;2022-12-04T01:45:55;0.30;1.00
4727;DHT22;2377;51.734;8.950;2022-12-04T01:48:26;0.30;1.00
4727;DHT22;2377;51.734;8.950;2022-12-04T01:51:01;0.20;1.00
4727;DHT22;2377;51.734;8.950;2022-12-04T01:53:34;0.20;1.00
4727;DHT22;2377;51.734;8.950;2022-12-04T01:56:06;0.20;1.00
4727;DHT22;2377;51.734;8.950;2022-12-04T01:58:36;0.20;1.00
4727;DHT22;2377;51.734;8.950;2022-12-04T02:01:08;0.30;1.00
4727;DHT22;2377;51.734;8.950;2022-12-04T02:03:36;0.30;1.00
4727;DHT22;2377;51.734;8.950;2022-12-04T02:06:04;0.30;1.00
4727;DHT22;2377;51.734;8.950;2022-12-04T02:08:33;0.30;1.00
4727;DHT22;2377;51.734;8.950;2022-12-04T02:11:18;0.20;1.00
4727;DHT22;2377;51.734;8.950;2022-12-04T02:13:59;0.20;1.00
4727;DHT22;2377;51.734;8.950;2022-12-04T02:16:43;0.30;1.00
4727;DHT22;2377;51.734;8.950;2022-12-04T02:22:36;0.30;1.00
4727;DHT22;2377;51.734;8.950;2022-12-04T02:25:27;0.30;1.00
4727;DHT22;2377;51.734;8.950;2022-12-04T02:28:04;0.30;1.00
4727;DHT22;2377;51.734;8.950;2022-12-04T02:30:38;0.30;1.00
4727;DHT22;2377;51.734;8.950;2022-12-04T02:33:16;0.30;1.00
4727;DHT22;2377;51.734;8.950;2022-12-04T02:35:49;0.30;1.00
4727;DHT22;2377;51.734;8.950;2022-12-04T02:38:24;0.40;1.00
4727;DHT22;2377;51.734;8.950;2022-12-04T02:41:00;0.30;1.00
4727;DHT22;2377;51.734;8.950;2022-12-04T02:43:40;0.30;1.00
4727;DHT22;2377;51.734;8.950;2022-12-04T02:46:17;0.30;1.00
4727;DHT22;2377;51.734;8.950;2022-12-04T02:48:50;0.30;1.00
4727;DHT22;2377;51.734;8.950;2022-12-04T02:51:25;0.30;1.00
4727;DHT22;2377;51.734;8.950;2022-12-04T02:53:58;0.30;1.00
4727;DHT22;2377;51.734;8.950;2022-12-04T02:56:36;0.30;1.00
4727;DHT22;2377;51.734;8.950;2022-12-04T02:59:15;0.30;1.00
4727;DHT22;2377;51.734;8.950;2022-12-04T03:01:50;0.30;1.00
4727;DHT22;2377;51.734;8.950;2022-12-04T03:04:25;0.40;1.00
4727;DHT22;2377;51.734;8.950;2022-12-04T03:06:58;0.40;1.00
4727;DHT22;2377;51.734;8.950;2022-12-04T03:09:34;0.40;1.00
4727;DHT22;2377;51.734;8.950;2022-12-04T03:12:08;0.40;1.00
4727;DHT22;2377;51.734;8.950;2022-12-04T03:14:45;0.40;1.00
4727;DHT22;2377;51.734;8.950;2022-12-04T03:17:28;0.40;1.00
4727;DHT22;2377;51.734;8.950;2022-12-04T03:20:03;0.40;1.00
4727;DHT22;2377;51.734;8.950;2022-12-04T03:22:37;0.40;1.00
4727;DHT22;2377;51.734;8.950;2022-12-04T03:25:08;0.40;1.00
4727;DHT22;2377;51.734;8.950;2022-12-04T03:27:42;0.40;1.00
4727;DHT22;2377;51.734;8.950;2022-12-04T03:30:18;0.40;1.00
4727;DHT22;2377;51.734;8.950;2022-12-04T03:32:50;0.40;1.00
4727;DHT22;2377;51.734;8.950;2022-12-04T03:35:24;0.50;1.00
4727;DHT22;2377;51.734;8.950;2022-12-04T03:38:00;0.40;1.00
4727;DHT22;2377;51.734;8.950;2022-12-04T03:40:35;0.50;1.00
4727;DHT22;2377;51.734;8.950;2022-12-04T03:43:07;0.50;1.00
4727;DHT22;2377;51.734;8.950;2022-12-04T03:45:43;0.50;1.00
4727;DHT22;2377;51.734;8.950;2022-12-04T03:48:20;0.40;1.00
4727;DHT22;2377;51.734;8.950;2022-12-04T03:50:54;0.50;1.00
4727;DHT22;2377;51.734;8.950;2022-12-04T03:53:31;0.50;1.00
4727;DHT22;2377;51.734;8.950;2022-12-04T03:56:07;0.50;1.00
4727;DHT22;2377;51.734;8.950;2022-12-04T03:58:43;0.40;1.00
4727;DHT22;2377;51.734;8.950;2022-12-04T04:01:17;0.50;1.00
4727;DHT22;2377;51.734;8.950;2022-12-04T04:03:51;0.50;1.00
4727;DHT22;2377;51.734;8.950;2022-12-04T04:06:23;0.50;1.00
4727;DHT22;2377;51.734;8.950;2022-12-04T04:08:57;0.50;1.00
4727;DHT22;2377;51.734;8.950;2022-12-04T04:11:31;0.50;1.00
4727;DHT22;2377;51.734;8.950;2022-12-04T04:14:07;0.50;1.00
4727;DHT22;2377;51.734;8.950;2022-12-04T04:17:02;0.50;1.00
4727;DHT22;2377;51.734;8.950;2022-12-04T04:19:55;0.50;1.00
4727;DHT22;2377;51.734;8.950;2022-12-04T04:22:46;0.50;1.00
4727;DHT22;2377;51.734;8.950;2022-12-04T04:25:35;0.50;1.00
4727;DHT22;2377;51.734;8.950;2022-12-04T04:28:27;0.50;1.00
4727;DHT22;2377;51.734;8.950;2022-12-04T04:31:04;0.50;1.00
4727;DHT22;2377;51.734;8.950;2022-12-04T04:33:46;0.50;1.00
4727;DHT22;2377;51.734;8.950;2022-12-04T04:36:26;0.50;1.00
4727;DHT22;2377;51.734;8.950;2022-12-04T04:39:06;0.50;1.00
4727;DHT22;2377;51.734;8.950;2022-12-04T04:41:43;0.50;1.00
4727;DHT22;2377;51.734;8.950;2022-12-04T04:44:20;0.50;1.00
4727;DHT22;2377;51.734;8.950;2022-12-04T04:46:58;0.50;1.00
4727;DHT22;2377;51.734;8.950;2022-12-04T04:49:32;0.50;1.00
4727;DHT22;2377;51.734;8.950;2022-12-04T04:52:01;0.50;1.00
4727;DHT22;2377;51.734;8.950;2022-12-04T04:54:30;0.50;1.00
4727;DHT22;2377;51.734;8.950;2022-12-04T04:57:00;0.50;1.00
4727;DHT22;2377;51.734;8.950;2022-12-04T04:59:28;0.50;1.00
4727;DHT22;2377;51.734;8.950;2022-12-04T05:01:55;0.50;1.00
4727;DHT22;2377;51.734;8.950;2022-12-04T05:04:23;0.50;1.00
4727;DHT22;2377;51.734;8.950;2022-12-04T05:06:51;0.60;1.00
4727;DHT22;2377;51.734;8.950;2022-12-04T05:09:19;0.60;1.00
4727;DHT22;2377;51.734;8.950;2022-12-04T05:11:46;0.60;1.00
4727;DHT22;2377;51.734;8.950;2022-12-04T05:14:13;0.60;1.00
4727;DHT22;2377;51.734;8.950;2022-12-04T05:16:40;0.60;1.00
4727;DHT22;2377;51.734;8.950;2022-12-04T05:19:07;0.60;1.00
4727;DHT22;2377;51.734;8.950;2022-12-04T05:21:53;0.60;1.00
4727;DHT22;2377;51.734;8.950;2022-12-04T05:24:21;0.60;1.00
4727;DHT22;2377;51.734;8.950;2022-12-04T05:26:48;0.60;1.00
4727;DHT22;2377;51.734;8.950;2022-12-04T05:29:16;0.60;1.00
4727;DHT22;2377;51.734;8.950;2022-12-04T05:31:43;0.60;1.00
4727;DHT22;2377;51.734;8.950;2022-12-04T05:34:10;0.60;1.00
4727;DHT22;2377;51.734;8.950;2022-12-04T05:36:37;0.70;1.00
4727;DHT22;2377;51.734;8.950;2022-12-04T05:39:06;0.60;1.00
4727;DHT22;2377;51.734;8.950;2022-12-04T05:41:33;0.60;1.00
4727;DHT22;2377;51.734;8.950;2022-12-04T05:44:00;0.60;1.00
4727;DHT22;2377;51.734;8.950;2022-12-04T05:46:27;0.60;1.00
4727;DHT22;2377;51.734;8.950;2022-12-04T05:48:56;0.60;1.00
4727;DHT22;2377;51.734;8.950;2022-12-04T05:51:23;0.60;1.00
4727;DHT22;2377;51.734;8.950;2022-12-04T05:53:51;0.60;1.00
4727;DHT22;2377;51.734;8.950;2022-12-04T05:56:20;0.60;1.00
4727;DHT22;2377;51.734;8.950;2022-12-04T05:58:47;0.60;1.00
4727;DHT22;2377;51.734;8.950;2022-12-04T06:01:17;0.60;1.00
4727;DHT22;2377;51.734;8.950;2022-12-04T06:03:45;0.60;1.00
4727;DHT22;2377;51.734;8.950;2022-12-04T06:06:13;0.60;1.00
4727;DHT22;2377;51.734;8.950;2022-12-04T06:08:42;0.70;1.00
4727;DHT22;2377;51.734;8.950;2022-12-04T06:11:11;0.60;1.00
4727;DHT22;2377;51.734;8.950;2022-12-04T06:13:42;0.70;1.00
4727;DHT22;2377;51.734;8.950;2022-12-04T06:16:13;0.70;1.00
4727;DHT22;2377;51.734;8.950;2022-12-04T06:18:41;0.80;1.00
4727;DHT22;2377;51.734;8.950;2022-12-04T06:21:09;0.80;1.00
4727;DHT22;2377;51.734;8.950;2022-12-04T06:23:37;0.80;1.00
4727;DHT22;2377;51.734;8.950;2022-12-04T06:26:05;0.80;1.00
4727;DHT22;2377;51.734;8.950;2022-12-04T06:28:34;0.80;1.00
4727;DHT22;2377;51.734;8.950;2022-12-04T06:31:06;0.80;1.00
4727;DHT22;2377;51.734;8.950;2022-12-04T06:33:34;0.70;1.00
4727;DHT22;2377;51.734;8.950;2022-12-04T06:36:03;0.80;1.00
4727;DHT22;2377;51.734;8.950;2022-12-04T06:38:32;0.70;1.00
4727;DHT22;2377;51.734;8.950;2022-12-04T06:41:02;0.70;1.00
4727;DHT22;2377;51.734;8.950;2022-12-04T06:43:30;0.70;1.00
4727;DHT22;2377;51.734;8.950;2022-12-04T06:45:59;0.70;1.00
4727;DHT22;2377;51.734;8.950;2022-12-04T06:48:28;0.70;1.00
4727;DHT22;2377;51.734;8.950;2022-12-04T06:50:59;0.70;1.00
4727;DHT22;2377;51.734;8.950;2022-12-04T06:53:29;0.70;1.00
4727;DHT22;2377;51.734;8.950;2022-12-04T06:55:57;0.80;1.00
4727;DHT22;2377;51.734;8.950;2022-12-04T06:58:25;0.80;1.00
4727;DHT22;2377;51.734;8.950;2022-12-04T07:00:54;0.80;1.00
4727;DHT22;2377;51.734;8.950;2022-12-04T07:03:23;0.80;1.00
4727;DHT22;2377;51.734;8.950;2022-12-04T07:05:52;0.80;1.00
4727;DHT22;2377;51.734;8.950;2022-12-04T07:08:19;0.80;1.00
4727;DHT22;2377;51.734;8.950;2022-12-04T07:10:47;0.80;1.00
4727;DHT22;2377;51.734;8.950;2022-12-04T07:13:14;0.80;1.00
4727;DHT22;2377;51.734;8.950;2022-12-04T07:15:41;0.80;1.00
4727;DHT22;2377;51.734;8.950;2022-12-04T07:18:08;0.80;1.00
4727;DHT22;2377;51.734;8.950;2022-12-04T07:20:38;0.80;1.00
4727;DHT22;2377;51.734;8.950;2022-12-04T07:23:08;0.80;1.00
4727;DHT22;2377;51.734;8.950;2022-12-04T07:25:38;0.80;1.00
4727;DHT22;2377;51.734;8.950;2022-12-04T07:28:06;0.80;1.00
4727;DHT22;2377;51.734;8.950;2022-12-04T07:30:33;0.80;1.00
4727;DHT22;2377;51.734;8.950;2022-12-04T07:33:03;0.80;1.00
4727;DHT22;2377;51.734;8.950;2022-12-04T07:35:30;0.80;1.00
4727;DHT22;2377;51.734;8.950;2022-12-04T07:37:57;0.80;1.00
4727;DHT22;2377;51.734;8.950;2022-12-04T07:40:26;0.80;1.00
4727;DHT22;2377;51.734;8.950;2022-12-04T07:42:53;0.80;1.00
4727;DHT22;2377;51.734;8.950;2022-12-04T07:45:20;0.80;1.00
4727;DHT22;2377;51.734;8.950;2022-12-04T07:47:48;0.80;1.00
4727;DHT22;2377;51.734;8.950;2022-12-04T07:50:15;0.90;1.00
4727;DHT22;2377;51.734;8.950;2022-12-04T07:52:43;0.90;1.00
4727;DHT22;2377;51.734;8.950;2022-12-04T07:55:10;1.00;1.00
4727;DHT22;2377;51.734;8.950;2022-12-04T07:57:39;1.00;1.00
4727;DHT22;2377;51.734;8.950;2022-12-04T08:00:07;1.00;1.00
4727;DHT22;2377;51.734;8.950;2022-12-04T08:02:35;1.00;1.00
4727;DHT22;2377;51.734;8.950;2022-12-04T08:05:03;1.00;1.00
4727;DHT22;2377;51.734;8.950;2022-12-04T08:07:31;1.00;1.00
4727;DHT22;2377;51.734;8.950;2022-12-04T08:09:58;1.00;1.00
4727;DHT22;2377;51.734;8.950;2022-12-04T08:12:25;1.00;1.00
4727;DHT22;2377;51.734;8.950;2022-12-04T08:14:54;1.00;1.00
4727;DHT22;2377;51.734;8.950;2022-12-04T08:17:21;1.00;1.00
4727;DHT22;2377;51.734;8.950;2022-12-04T08:19:49;1.00;1.00
4727;DHT22;2377;51.734;8.950;2022-12-04T08:22:16;1.00;1.00
4727;DHT22;2377;51.734;8.950;2022-12-04T08:24:43;1.10;1.00
4727;DHT22;2377;51.734;8.950;2022-12-04T08:27:11;1.10;1.00
4727;DHT22;2377;51.734;8.950;2022-12-04T08:29:38;1.00;1.00
4727;DHT22;2377;51.734;8.950;2022-12-04T08:32:07;1.10;1.00
4727;DHT22;2377;51.734;8.950;2022-12-04T08:34:34;1.10;1.00
4727;DHT22;2377;51.734;8.950;2022-12-04T08:37:01;1.10;1.00
4727;DHT22;2377;51.734;8.950;2022-12-04T08:39:28;1.10;1.00
4727;DHT22;2377;51.734;8.950;2022-12-04T08:41:55;1.10;1.00
4727;DHT22;2377;51.734;8.950;2022-12-04T08:44:23;1.10;1.00
4727;DHT22;2377;51.734;8.950;2022-12-04T08:46:50;1.10;1.00
4727;DHT22;2377;51.734;8.950;2022-12-04T08:49:18;1.10;1.00
4727;DHT22;2377;51.734;8.950;2022-12-04T08:51:46;1.10;1.00
4727;DHT22;2377;51.734;8.950;2022-12-04T08:54:13;1.10;1.00
4727;DHT22;2377;51.734;8.950;2022-12-04T08:56:40;1.10;1.00
4727;DHT22;2377;51.734;8.950;2022-12-04T08:59:11;1.10;1.00
4727;DHT22;2377;51.734;8.950;2022-12-04T09:01:38;1.10;1.00
4727;DHT22;2377;51.734;8.950;2022-12-04T09:04:06;1.10;1.00
4727;DHT22;2377;51.734;8.950;2022-12-04T09:06:34;1.10;1.00
4727;DHT22;2377;51.734;8.950;2022-12-04T09:09:02;1.10;1.00
4727;DHT22;2377;51.734;8.950;2022-12-04T09:11:30;1.20;1.00
4727;DHT22;2377;51.734;8.950;2022-12-04T09:13:57;1.20;1.00
4727;DHT22;2377;51.734;8.950;2022-12-04T09:16:25;1.20;1.00
4727;DHT22;2377;51.734;8.950;2022-12-04T09:18:53;1.30;1.00
4727;DHT22;2377;51.734;8.950;2022-12-04T09:21:21;1.30;1.00
4727;DHT22;2377;51.734;8.950;2022-12-04T09:23:51;1.20;1.00
4727;DHT22;2377;51.734;8.950;2022-12-04T09:26:22;1.30;1.00
4727;DHT22;2377;51.734;8.950;2022-12-04T09:28:51;1.30;1.00
4727;DHT22;2377;51.734;8.950;2022-12-04T09:31:19;1.30;1.00
4727;DHT22;2377;51.734;8.950;2022-12-04T09:33:48;1.30;1.00
4727;DHT22;2377;51.734;8.950;2022-12-04T09:36:16;1.30;1.00
4727;DHT22;2377;51.734;8.950;2022-12-04T09:38:45;1.30;1.00
4727;DHT22;2377;51.734;8.950;2022-12-04T09:44:32;1.30;1.00
4727;DHT22;2377;51.734;8.950;2022-12-04T09:47:04;1.40;1.00
4727;DHT22;2377;51.734;8.950;2022-12-04T09:49:41;1.30;1.00
4727;DHT22;2377;51.734;8.950;2022-12-04T09:52:23;1.40;1.00
4727;DHT22;2377;51.734;8.950;2022-12-04T09:55:14;1.40;1.00
4727;DHT22;2377;51.734;8.950;2022-12-04T09:57:51;1.40;1.00
4727;DHT22;2377;51.734;8.950;2022-12-04T10:00:21;1.40;1.00
4727;DHT22;2377;51.734;8.950;2022-12-04T10:02:51;1.50;1.00
4727;DHT22;2377;51.734;8.950;2022-12-04T10:05:39;1.50;1.00
4727;DHT22;2377;51.734;8.950;2022-12-04T10:08:18;1.50;1.00
4727;DHT22;2377;51.734;8.950;2022-12-04T10:10:56;1.50;1.00
4727;DHT22;2377;51.734;8.950;2022-12-04T10:13:49;1.50;1.00
4727;DHT22;2377;51.734;8.950;2022-12-04T10:16:35;1.50;1.00
4727;DHT22;2377;51.734;8.950;2022-12-04T10:19:14;1.50;1.00
4727;DHT22;2377;51.734;8.950;2022-12-04T10:22:00;1.50;1.00
4727;DHT22;2377;51.734;8.950;2022-12-04T10:24:39;1.50;1.00
4727;DHT22;2377;51.734;8.950;2022-12-04T10:27:18;1.60;1.00
4727;DHT22;2377;51.734;8.950;2022-12-04T10:29:52;1.60;1.00
4727;DHT22;2377;51.734;8.950;2022-12-04T10:32:25;1.60;1.00
4727;DHT22;2377;51.734;8.950;2022-12-04T10:35:02;1.60;1.00
4727;DHT22;2377;51.734;8.950;2022-12-04T10:37:42;1.50;1.00
4727;DHT22;2377;51.734;8.950;2022-12-04T10:40:17;1.50;1.00
4727;DHT22;2377;51.734;8.950;2022-12-04T10:42:52;1.60;1.00
4727;DHT22;2377;51.734;8.950;2022-12-04T10:45:25;1.60;1.00
4727;DHT22;2377;51.734;8.950;2022-12-04T10:47:52;1.60;1.00
4727;DHT22;2377;51.734;8.950;2022-12-04T10:50:22;1.60;1.00
4727;DHT22;2377;51.734;8.950;2022-12-04T10:52:50;1.60;1.00
4727;DHT22;2377;51.734;8.950;2022-12-04T10:55:27;1.60;1.00
4727;DHT22;2377;51.734;8.950;2022-12-04T10:57:56;1.60;1.00
4727;DHT22;2377;51.734;8.950;2022-12-04T11:00:27;1.70;1.00
4727;DHT22;2377;51.734;8.950;2022-12-04T11:02:58;1.70;1.00
4727;DHT22;2377;51.734;8.950;2022-12-04T11:05:30;1.70;1.00
4727;DHT22;2377;51.734;8.950;2022-12-04T11:08:00;1.60;1.00
4727;DHT22;2377;51.734;8.950;2022-12-04T11:10:33;1.70;1.00
4727;DHT22;2377;51.734;8.950;2022-12-04T11:13:04;1.70;1.00
4727;DHT22;2377;51.734;8.950;2022-12-04T11:15:41;1.70;1.00
4727;DHT22;2377;51.734;8.950;2022-12-04T11:18:16;1.70;1.00
4727;DHT22;2377;51.734;8.950;2022-12-04T11:20:50;1.80;1.00
4727;DHT22;2377;51.734;8.950;2022-12-04T11:23:20;1.80;1.00
4727;DHT22;2377;51.734;8.950;2022-12-04T11:25:50;1.80;1.00
4727;DHT22;2377;51.734;8.950;2022-12-04T11:28:23;1.80;1.00
4727;DHT22;2377;51.734;8.950;2022-12-04T11:30:58;1.80;1.00
4727;DHT22;2377;51.734;8.950;2022-12-04T11:33:32;1.80;1.00
4727;DHT22;2377;51.734;8.950;2022-12-04T11:36:06;1.80;1.00
4727;DHT22;2377;51.734;8.950;2022-12-04T11:38:45;1.80;1.00
4727;DHT22;2377;51.734;8.950;2022-12-04T11:41:23;1.90;1.00
4727;DHT22;2377;51.734;8.950;2022-12-04T11:43:52;1.80;1.00
4727;DHT22;2377;51.734;8.950;2022-12-04T11:46:22;1.80;1.00
4727;DHT22;2377;51.734;8.950;2022-12-04T11:48:51;1.80;1.00
4727;DHT22;2377;51.734;8.950;2022-12-04T11:51:26;1.80;1.00
4727;DHT22;2377;51.734;8.950;2022-12-04T11:54:09;1.80;1.00
4727;DHT22;2377;51.734;8.950;2022-12-04T11:56:48;1.80;1.00
4727;DHT22;2377;51.734;8.950;2022-12-04T11:59:43;1.80;1.00
4727;DHT22;2377;51.734;8.950;2022-12-04T12:02:45;1.80;1.00
4727;DHT22;2377;51.734;8.950;2022-12-04T12:08:57;1.80;1.00
4727;DHT22;2377;51.734;8.950;2022-12-04T12:11:44;1.90;1.00
4727;DHT22;2377;51.734;8.950;2022-12-04T12:14:23;1.80;1.00
4727;DHT22;2377;51.734;8.950;2022-12-04T12:17:07;1.90;1.00
4727;DHT22;2377;51.734;8.950;2022-12-04T12:19:57;1.80;1.00
4727;DHT22;2377;51.734;8.950;2022-12-04T12:25:57;1.90;1.00
4727;DHT22;2377;51.734;8.950;2022-12-04T12:28:43;1.90;1.00
4727;DHT22;2377;51.734;8.950;2022-12-04T12:31:52;1.90;1.00
4727;DHT22;2377;51.734;8.950;2022-12-04T12:34:35;1.90;1.00
4727;DHT22;2377;51.734;8.950;2022-12-04T12:37:11;1.90;1.00
4727;DHT22;2377;51.734;8.950;2022-12-04T12:39:51;2.00;1.00
4727;DHT22;2377;51.734;8.950;2022-12-04T12:42:29;1.90;1.00
4727;DHT22;2377;51.734;8.950;2022-12-04T12:45:06;1.90;1.00
4727;DHT22;2377;51.734;8.950;2022-12-04T12:47:49;1.90;1.00
4727;DHT22;2377;51.734;8.950;2022-12-04T12:50:25;2.00;1.00
4727;DHT22;2377;51.734;8.950;2022-12-04T12:53:06;2.00;1.00
4727;DHT22;2377;51.734;8.950;2022-12-04T12:55:41;2.00;1.00
4727;DHT22;2377;51.734;8.950;2022-12-04T12:58:18;2.00;1.00
4727;DHT22;2377;51.734;8.950;2022-12-04T13:00:57;2.00;1.00
4727;DHT22;2377;51.734;8.950;2022-12-04T13:03:35;2.00;1.00
4727;DHT22;2377;51.734;8.950;2022-12-04T13:06:12;2.00;1.00
4727;DHT22;2377;51.734;8.950;2022-12-04T13:08:51;2.00;1.00
4727;DHT22;2377;51.734;8.950;2022-12-04T13:11:28;2.00;1.00
4727;DHT22;2377;51.734;8.950;2022-12-04T13:13:59;2.00;1.00
4727;DHT22;2377;51.734;8.950;2022-12-04T13:16:32;2.00;1.00
4727;DHT22;2377;51.734;8.950;2022-12-04T13:19:08;2.00;1.00
4727;DHT22;2377;51.734;8.950;2022-12-04T13:21:46;2.00;1.00
4727;DHT22;2377;51.734;8.950;2022-12-04T13:24:49;2.00;1.00
4727;DHT22;2377;51.734;8.950;2022-12-04T13:27:37;2.00;1.00
4727;DHT22;2377;51.734;8.950;2022-12-04T13:30:15;2.00;1.00
4727;DHT22;2377;51.734;8.950;2022-12-04T13:33:09;2.00;1.00
4727;DHT22;2377;51.734;8.950;2022-12-04T13:36:23;2.00;1.00
4727;DHT22;2377;51.734;8.950;2022-12-04T13:39:48;2.00;1.00
4727;DHT22;2377;51.734;8.950;2022-12-04T13:42:50;2.00;1.00
4727;DHT22;2377;51.734;8.950;2022-12-04T13:45:25;2.00;1.00
4727;DHT22;2377;51.734;8.950;2022-12-04T13:47:58;2.00;1.00
4727;DHT22;2377;51.734;8.950;2022-12-04T13:50:30;2.00;1.00
4727;DHT22;2377;51.734;8.950;2022-12-04T13:52:58;2.00;1.00
4727;DHT22;2377;51.734;8.950;2022-12-04T13:55:31;2.00;1.00
4727;DHT22;2377;51.734;8.950;2022-12-04T13:58:24;2.00;1.00
4727;DHT22;2377;51.734;8.950;2022-12-04T14:01:00;2.00;1.00
4727;DHT22;2377;51.734;8.950;2022-12-04T14:03:32;2.00;1.00
4727;DHT22;2377;51.734;8.950;2022-12-04T14:06:21;2.00;1.00
4727;DHT22;2377;51.734;8.950;2022-12-04T14:08:55;2.00;1.00
4727;DHT22;2377;51.734;8.950;2022-12-04T14:11:26;2.00;1.00
4727;DHT22;2377;51.734;8.950;2022-12-04T14:13:59;2.00;1.00
4727;DHT22;2377;51.734;8.950;2022-12-04T14:16:31;2.00;1.00
4727;DHT22;2377;51.734;8.950;2022-12-04T14:19:05;2.00;1.00
4727;DHT22;2377;51.734;8.950;2022-12-04T14:21:40;2.00;1.00
4727;DHT22;2377;51.734;8.950;2022-12-04T14:24:15;2.00;1.00
4727;DHT22;2377;51.734;8.950;2022-12-04T14:26:53;2.00;1.00
4727;DHT22;2377;51.734;8.950;2022-12-04T14:29:34;2.00;1.00
4727;DHT22;2377;51.734;8.950;2022-12-04T14:32:14;2.00;1.00
4727;DHT22;2377;51.734;8.950;2022-12-04T14:34:44;2.00;1.00
4727;DHT22;2377;51.734;8.950;2022-12-04T14:37:20;2.00;1.00
4727;DHT22;2377;51.734;8.950;2022-12-04T14:39:52;1.90;1.00
4727;DHT22;2377;51.734;8.950;2022-12-04T14:42:22;1.90;1.00
4727;DHT22;2377;51.734;8.950;2022-12-04T14:44:55;2.00;1.00
4727;DHT22;2377;51.734;8.950;2022-12-04T14:47:34;2.00;1.00
4727;DHT22;2377;51.734;8.950;2022-12-04T14:50:17;2.00;1.00
4727;DHT22;2377;51.734;8.950;2022-12-04T14:52:57;2.00;1.00
4727;DHT22;2377;51.734;8.950;2022-12-04T14:55:34;2.00;1.00
4727;DHT22;2377;51.734;8.950;2022-12-04T14:58:13;2.00;1.00
4727;DHT22;2377;51.734;8.950;2022-12-04T15:01:03;2.00;1.00
4727;DHT22;2377;51.734;8.950;2022-12-04T15:03:34;2.00;1.00
4727;DHT22;2377;51.734;8.950;2022-12-04T15:06:16;2.00;1.00
4727;DHT22;2377;51.734;8.950;2022-12-04T15:08:51;2.00;1.00
4727;DHT22;2377;51.734;8.950;2022-12-04T15:11:45;2.00;1.00
4727;DHT22;2377;51.734;8.950;2022-12-04T15:14:39;2.00;1.00
4727;DHT22;2377;51.734;8.950;2022-12-04T15:17:10;2.00;1.00
4727;DHT22;2377;51.734;8.950;2022-12-04T15:19:38;2.00;1.00
4727;DHT22;2377;51.734;8.950;2022-12-04T15:22:11;2.00;1.00
4727;DHT22;2377;51.734;8.950;2022-12-04T15:24:44;2.00;1.00
4727;DHT22;2377;51.734;8.950;2022-12-04T15:27:12;2.00;1.00
4727;DHT22;2377;51.734;8.950;2022-12-04T15:29:42;2.00;1.00
4727;DHT22;2377;51.734;8.950;2022-12-04T15:32:15;2.00;1.00
4727;DHT22;2377;51.734;8.950;2022-12-04T15:34:49;2.00;1.00
4727;DHT22;2377;51.734;8.950;2022-12-04T15:37:22;2.00;1.00
4727;DHT22;2377;51.734;8.950;2022-12-04T15:39:52;2.00;1.00
4727;DHT22;2377;51.734;8.950;2022-12-04T15:42:25;2.00;1.00
4727;DHT22;2377;51.734;8.950;2022-12-04T15:44:55;2.00;1.00
4727;DHT22;2377;51.734;8.950;2022-12-04T15:47:28;2.00;1.00
4727;DHT22;2377;51.734;8.950;2022-12-04T15:50:08;2.00;1.00
4727;DHT22;2377;51.734;8.950;2022-12-04T15:52:48;2.00;1.00
4727;DHT22;2377;51.734;8.950;2022-12-04T15:55:21;2.00;1.00
4727;DHT22;2377;51.734;8.950;2022-12-04T15:57:51;1.90;1.00
4727;DHT22;2377;51.734;8.950;2022-12-04T16:00:23;1.90;1.00
4727;DHT22;2377;51.734;8.950;2022-12-04T16:02:55;1.90;1.00
4727;DHT22;2377;51.734;8.950;2022-12-04T16:05:31;1.90;1.00
4727;DHT22;2377;51.734;8.950;2022-12-04T16:08:17;1.80;1.00
4727;DHT22;2377;51.734;8.950;2022-12-04T16:10:55;1.80;1.00
4727;DHT22;2377;51.734;8.950;2022-12-04T16:13:30;1.80;1.00
4727;DHT22;2377;51.734;8.950;2022-12-04T16:15:58;1.80;1.00
4727;DHT22;2377;51.734;8.950;2022-12-04T16:18:28;1.80;1.00
4727;DHT22;2377;51.734;8.950;2022-12-04T16:20:55;1.80;1.00
4727;DHT22;2377;51.734;8.950;2022-12-04T16:23:24;1.80;1.00
4727;DHT22;2377;51.734;8.950;2022-12-04T16:25:52;1.80;1.00
4727;DHT22;2377;51.734;8.950;2022-12-04T16:28:20;1.80;1.00
4727;DHT22;2377;51.734;8.950;2022-12-04T16:30:49;1.80;1.00
4727;DHT22;2377;51.734;8.950;2022-12-04T16:33:17;1.80;1.00
4727;DHT22;2377;51.734;8.950;2022-12-04T16:35:46;1.80;1.00
4727;DHT22;2377;51.734;8.950;2022-12-04T16:38:15;1.70;1.00
4727;DHT22;2377;51.734;8.950;2022-12-04T16:40:43;1.70;1.00
4727;DHT22;2377;51.734;8.950;2022-12-04T16:43:12;1.70;1.00
4727;DHT22;2377;51.734;8.950;2022-12-04T16:45:44;1.60;1.00
4727;DHT22;2377;51.734;8.950;2022-12-04T16:48:13;1.60;1.00
4727;DHT22;2377;51.734;8.950;2022-12-04T16:50:42;1.60;1.00
4727;DHT22;2377;51.734;8.950;2022-12-04T16:53:14;1.60;1.00
4727;DHT22;2377;51.734;8.950;2022-12-04T16:55:44;1.60;1.00
4727;DHT22;2377;51.734;8.950;2022-12-04T16:58:13;1.60;1.00
4727;DHT22;2377;51.734;8.950;2022-12-04T17:00:42;1.60;1.00
4727;DHT22;2377;51.734;8.950;2022-12-04T17:03:17;1.60;1.00
4727;DHT22;2377;51.734;8.950;2022-12-04T17:05:49;1.60;1.00
4727;DHT22;2377;51.734;8.950;2022-12-04T17:08:17;1.60;1.00
4727;DHT22;2377;51.734;8.950;2022-12-04T17:10:45;1.60;1.00
4727;DHT22;2377;51.734;8.950;2022-12-04T17:13:12;1.60;1.00
4727;DHT22;2377;51.734;8.950;2022-12-04T17:15:39;1.60;1.00
4727;DHT22;2377;51.734;8.950;2022-12-04T17:18:07;1.60;1.00
4727;DHT22;2377;51.734;8.950;2022-12-04T17:20:34;1.60;1.00
4727;DHT22;2377;51.734;8.950;2022-12-04T17:23:01;1.60;1.00
4727;DHT22;2377;51.734;8.950;2022-12-04T17:25:30;1.60;1.00
4727;DHT22;2377;51.734;8.950;2022-12-04T17:27:57;1.60;1.00